Portada
METAR-TAF:

METAR-TAF

Aeroports :

Akita, Japó

latitud: 39-37N, longitud: 140-13E, altitud: 93 m

Observació

L'informe es va fer fa 30 minuts, a les 02:00 UTC
Vent 2 kt amb direcció variable
Temperatura 26°C
Humitat 65%
Pressió 1004 hPa
Visibilitat 10 km o més
Escasses núvols a una alçada de 2500 ft
Cel ennuvolat

METAR: RJSK 160200Z VRB02KT 9999 FEW025 BKN/// 26/19 Q1004

Hora: 11:30 (02:30 UTC)

Pronòstic

L'informe es va fer fa 3 hores i 25 minuts, a les 23:05 UTC
Pronòstic vàlid del 16 a les 00 UTC al 17 a les 06 UTC
Vent 5 kt del Sud-Est
Visibilitat 10 km o més
Escasses núvols a una alçada de 2000 ft
Núvols disperses a una alçada de 4000 ft
Evolucionant progressivament
l' 16 a les 03 UTC al 16 a les 05 UTC
Vent 8 kt del Oest/Nord-Oest

TAF: RJSK 152305Z 1600/1706 14005KT 9999 FEW020 SCT040 BECMG 1603/1605 30008KT

Observacions i pronòstics meteorològics de més de 4000 aeroports (METAR i TAF).

Les estacions disponibles són els punts grocs i vermells al mapa.

Posi el ratolí al punt desitjat per veure el nom de l'estació.

Feu clic per veure les observacions i els pronòstics meteorològics.

Per canviar el mapa: feu clic els botons verds amb una creu de color negre per apropar; al botó verd amb un guió per allunyar la imatge; o en les fletxes verdes per a mapes adjacents.


METAR-TAF: